sensor_id;sensor_type;location;lat;lon;timestamp;P1;durP1;ratioP1;P2;durP2;ratioP2
25049;SDS011;13046;49.814;9.918;2022-11-27T00:03:36;33.03;;;24.15;;
25049;SDS011;13046;49.814;9.918;2022-11-27T00:06:02;37.58;;;22.10;;
25049;SDS011;13046;49.814;9.918;2022-11-27T00:08:28;46.63;;;23.90;;
25049;SDS011;13046;49.814;9.918;2022-11-27T00:10:54;60.67;;;24.48;;
25049;SDS011;13046;49.814;9.918;2022-11-27T00:13:20;55.72;;;24.65;;
25049;SDS011;13046;49.814;9.918;2022-11-27T00:15:46;60.63;;;25.10;;
25049;SDS011;13046;49.814;9.918;2022-11-27T00:18:12;61.60;;;25.58;;
25049;SDS011;13046;49.814;9.918;2022-11-27T00:20:38;52.83;;;24.10;;
25049;SDS011;13046;49.814;9.918;2022-11-27T00:23:04;58.55;;;24.90;;
25049;SDS011;13046;49.814;9.918;2022-11-27T00:25:30;74.80;;;27.58;;
25049;SDS011;13046;49.814;9.918;2022-11-27T00:27:56;76.35;;;26.17;;
25049;SDS011;13046;49.814;9.918;2022-11-27T00:30:22;57.60;;;25.73;;
25049;SDS011;13046;49.814;9.918;2022-11-27T00:32:48;69.22;;;26.20;;
25049;SDS011;13046;49.814;9.918;2022-11-27T00:35:14;76.43;;;25.77;;
25049;SDS011;13046;49.814;9.918;2022-11-27T00:37:40;90.43;;;26.95;;
25049;SDS011;13046;49.814;9.918;2022-11-27T00:40:06;114.28;;;27.75;;
25049;SDS011;13046;49.814;9.918;2022-11-27T00:42:32;111.28;;;29.52;;
25049;SDS011;13046;49.814;9.918;2022-11-27T00:44:58;184.05;;;31.92;;
25049;SDS011;13046;49.814;9.918;2022-11-27T00:47:24;161.77;;;31.55;;
25049;SDS011;13046;49.814;9.918;2022-11-27T00:49:50;143.43;;;31.70;;
25049;SDS011;13046;49.814;9.918;2022-11-27T00:52:16;123.63;;;31.65;;
25049;SDS011;13046;49.814;9.918;2022-11-27T00:54:42;182.52;;;33.97;;
25049;SDS011;13046;49.814;9.918;2022-11-27T00:57:08;113.78;;;30.75;;
25049;SDS011;13046;49.814;9.918;2022-11-27T00:59:34;203.73;;;33.35;;
25049;SDS011;13046;49.814;9.918;2022-11-27T01:02:00;122.35;;;28.85;;
25049;SDS011;13046;49.814;9.918;2022-11-27T01:04:26;140.93;;;30.65;;
25049;SDS011;13046;49.814;9.918;2022-11-27T01:06:53;138.40;;;29.85;;
25049;SDS011;13046;49.814;9.918;2022-11-27T01:09:19;116.68;;;31.13;;
25049;SDS011;13046;49.814;9.918;2022-11-27T01:11:45;89.03;;;29.73;;
25049;SDS011;13046;49.814;9.918;2022-11-27T01:14:13;115.55;;;31.90;;
25049;SDS011;13046;49.814;9.918;2022-11-27T01:16:42;124.53;;;33.00;;
25049;SDS011;13046;49.814;9.918;2022-11-27T01:19:09;102.88;;;31.98;;
25049;SDS011;13046;49.814;9.918;2022-11-27T01:21:35;135.15;;;33.33;;
25049;SDS011;13046;49.814;9.918;2022-11-27T01:24:02;177.80;;;33.45;;
25049;SDS011;13046;49.814;9.918;2022-11-27T01:26:28;112.45;;;31.67;;
25049;SDS011;13046;49.814;9.918;2022-11-27T01:28:55;135.02;;;29.67;;
25049;SDS011;13046;49.814;9.918;2022-11-27T01:31:22;102.40;;;30.42;;
25049;SDS011;13046;49.814;9.918;2022-11-27T01:33:51;157.13;;;33.42;;
25049;SDS011;13046;49.814;9.918;2022-11-27T01:36:17;204.85;;;33.45;;
25049;SDS011;13046;49.814;9.918;2022-11-27T01:38:43;142.85;;;30.90;;
25049;SDS011;13046;49.814;9.918;2022-11-27T01:41:14;91.63;;;30.05;;
25049;SDS011;13046;49.814;9.918;2022-11-27T01:43:42;106.90;;;26.95;;
25049;SDS011;13046;49.814;9.918;2022-11-27T01:48:56;119.72;;;28.63;;
25049;SDS011;13046;49.814;9.918;2022-11-27T01:51:23;52.50;;;25.15;;
25049;SDS011;13046;49.814;9.918;2022-11-27T01:53:50;87.70;;;26.13;;
25049;SDS011;13046;49.814;9.918;2022-11-27T01:56:17;43.22;;;22.40;;
25049;SDS011;13046;49.814;9.918;2022-11-27T01:58:44;62.30;;;23.73;;
25049;SDS011;13046;49.814;9.918;2022-11-27T02:01:11;50.72;;;23.52;;
25049;SDS011;13046;49.814;9.918;2022-11-27T02:03:37;46.92;;;23.30;;
25049;SDS011;13046;49.814;9.918;2022-11-27T02:06:03;53.95;;;23.80;;
25049;SDS011;13046;49.814;9.918;2022-11-27T02:08:29;77.30;;;30.92;;
25049;SDS011;13046;49.814;9.918;2022-11-27T02:11:02;47.63;;;30.88;;
25049;SDS011;13046;49.814;9.918;2022-11-27T02:13:38;57.35;;;27.17;;
25049;SDS011;13046;49.814;9.918;2022-11-27T02:16:09;68.28;;;23.63;;
25049;SDS011;13046;49.814;9.918;2022-11-27T02:21:05;59.25;;;22.33;;
25049;SDS011;13046;49.814;9.918;2022-11-27T02:23:48;79.45;;;23.55;;
25049;SDS011;13046;49.814;9.918;2022-11-27T02:31:37;65.53;;;22.90;;
25049;SDS011;13046;49.814;9.918;2022-11-27T02:36:37;30.25;;;21.77;;
25049;SDS011;13046;49.814;9.918;2022-11-27T02:39:09;35.50;;;21.88;;
25049;SDS011;13046;49.814;9.918;2022-11-27T02:41:43;42.42;;;23.08;;
25049;SDS011;13046;49.814;9.918;2022-11-27T02:44:11;122.38;;;25.60;;
25049;SDS011;13046;49.814;9.918;2022-11-27T02:46:38;66.22;;;23.90;;
25049;SDS011;13046;49.814;9.918;2022-11-27T02:49:07;82.60;;;23.52;;
25049;SDS011;13046;49.814;9.918;2022-11-27T02:51:35;72.35;;;24.75;;
25049;SDS011;13046;49.814;9.918;2022-11-27T02:54:04;58.03;;;22.75;;
25049;SDS011;13046;49.814;9.918;2022-11-27T02:56:31;49.47;;;22.95;;
25049;SDS011;13046;49.814;9.918;2022-11-27T02:58:59;52.20;;;23.48;;
25049;SDS011;13046;49.814;9.918;2022-11-27T03:01:27;68.80;;;26.10;;
25049;SDS011;13046;49.814;9.918;2022-11-27T03:03:54;66.22;;;24.40;;
25049;SDS011;13046;49.814;9.918;2022-11-27T03:06:30;63.55;;;24.73;;
25049;SDS011;13046;49.814;9.918;2022-11-27T03:08:59;34.90;;;21.52;;
25049;SDS011;13046;49.814;9.918;2022-11-27T03:11:27;49.80;;;23.48;;
25049;SDS011;13046;49.814;9.918;2022-11-27T03:13:58;46.83;;;23.52;;
25049;SDS011;13046;49.814;9.918;2022-11-27T03:21:25;86.50;;;24.33;;
25049;SDS011;13046;49.814;9.918;2022-11-27T03:23:53;68.55;;;23.25;;
25049;SDS011;13046;49.814;9.918;2022-11-27T03:26:19;52.28;;;23.30;;
25049;SDS011;13046;49.814;9.918;2022-11-27T03:28:45;38.75;;;22.02;;
25049;SDS011;13046;49.814;9.918;2022-11-27T03:31:11;39.63;;;21.10;;
25049;SDS011;13046;49.814;9.918;2022-11-27T03:33:38;67.10;;;23.73;;
25049;SDS011;13046;49.814;9.918;2022-11-27T03:36:11;41.17;;;21.42;;
25049;SDS011;13046;49.814;9.918;2022-11-27T03:38:37;29.85;;;20.08;;
25049;SDS011;13046;49.814;9.918;2022-11-27T03:41:28;57.20;;;25.40;;
25049;SDS011;13046;49.814;9.918;2022-11-27T03:43:54;46.10;;;22.33;;
25049;SDS011;13046;49.814;9.918;2022-11-27T03:46:31;53.90;;;24.48;;
25049;SDS011;13046;49.814;9.918;2022-11-27T03:49:13;59.70;;;24.10;;
25049;SDS011;13046;49.814;9.918;2022-11-27T03:51:50;51.05;;;23.80;;
25049;SDS011;13046;49.814;9.918;2022-11-27T03:59:13;41.58;;;20.40;;
25049;SDS011;13046;49.814;9.918;2022-11-27T04:01:40;84.80;;;24.88;;
25049;SDS011;13046;49.814;9.918;2022-11-27T04:04:07;74.68;;;23.60;;
25049;SDS011;13046;49.814;9.918;2022-11-27T04:06:33;68.05;;;22.40;;
25049;SDS011;13046;49.814;9.918;2022-11-27T04:08:59;72.32;;;23.08;;
25049;SDS011;13046;49.814;9.918;2022-11-27T04:11:25;62.28;;;22.13;;
25049;SDS011;13046;49.814;9.918;2022-11-27T04:13:51;125.47;;;26.23;;
25049;SDS011;13046;49.814;9.918;2022-11-27T04:16:17;73.03;;;23.42;;
25049;SDS011;13046;49.814;9.918;2022-11-27T04:18:43;48.58;;;23.80;;
25049;SDS011;13046;49.814;9.918;2022-11-27T04:21:09;40.20;;;22.63;;
25049;SDS011;13046;49.814;9.918;2022-11-27T04:23:39;63.65;;;23.10;;
25049;SDS011;13046;49.814;9.918;2022-11-27T04:26:05;70.90;;;25.27;;
25049;SDS011;13046;49.814;9.918;2022-11-27T04:28:31;57.30;;;23.58;;
25049;SDS011;13046;49.814;9.918;2022-11-27T04:30:57;56.80;;;24.17;;
25049;SDS011;13046;49.814;9.918;2022-11-27T04:33:23;69.30;;;22.50;;
25049;SDS011;13046;49.814;9.918;2022-11-27T04:35:50;62.20;;;24.20;;
25049;SDS011;13046;49.814;9.918;2022-11-27T04:38:16;65.15;;;22.48;;
25049;SDS011;13046;49.814;9.918;2022-11-27T04:40:42;57.72;;;22.95;;
25049;SDS011;13046;49.814;9.918;2022-11-27T04:43:08;80.10;;;21.58;;
25049;SDS011;13046;49.814;9.918;2022-11-27T04:45:35;47.70;;;21.50;;
25049;SDS011;13046;49.814;9.918;2022-11-27T04:48:01;53.53;;;21.70;;
25049;SDS011;13046;49.814;9.918;2022-11-27T04:50:28;54.97;;;21.10;;
25049;SDS011;13046;49.814;9.918;2022-11-27T04:52:54;66.22;;;21.52;;
25049;SDS011;13046;49.814;9.918;2022-11-27T04:55:21;70.65;;;22.35;;
25049;SDS011;13046;49.814;9.918;2022-11-27T04:57:47;53.33;;;22.70;;
25049;SDS011;13046;49.814;9.918;2022-11-27T05:00:13;45.83;;;21.67;;
25049;SDS011;13046;49.814;9.918;2022-11-27T05:02:39;117.63;;;24.13;;
25049;SDS011;13046;49.814;9.918;2022-11-27T05:05:05;51.92;;;23.52;;
25049;SDS011;13046;49.814;9.918;2022-11-27T05:07:31;57.67;;;24.10;;
25049;SDS011;13046;49.814;9.918;2022-11-27T05:09:57;69.55;;;22.40;;
25049;SDS011;13046;49.814;9.918;2022-11-27T05:12:23;36.60;;;20.15;;
25049;SDS011;13046;49.814;9.918;2022-11-27T05:14:49;55.17;;;22.13;;
25049;SDS011;13046;49.814;9.918;2022-11-27T05:17:15;68.85;;;20.65;;
25049;SDS011;13046;49.814;9.918;2022-11-27T05:19:41;74.93;;;23.35;;
25049;SDS011;13046;49.814;9.918;2022-11-27T05:22:07;52.30;;;22.30;;
25049;SDS011;13046;49.814;9.918;2022-11-27T05:24:33;60.63;;;19.92;;
25049;SDS011;13046;49.814;9.918;2022-11-27T05:26:59;36.75;;;19.42;;
25049;SDS011;13046;49.814;9.918;2022-11-27T05:29:25;41.30;;;18.55;;
25049;SDS011;13046;49.814;9.918;2022-11-27T05:31:52;38.40;;;17.77;;
25049;SDS011;13046;49.814;9.918;2022-11-27T05:34:18;46.85;;;19.33;;
25049;SDS011;13046;49.814;9.918;2022-11-27T05:36:44;47.65;;;18.35;;
25049;SDS011;13046;49.814;9.918;2022-11-27T05:39:10;41.90;;;19.35;;
25049;SDS011;13046;49.814;9.918;2022-11-27T05:41:37;48.97;;;17.20;;
25049;SDS011;13046;49.814;9.918;2022-11-27T05:44:03;34.00;;;16.35;;
25049;SDS011;13046;49.814;9.918;2022-11-27T05:46:29;36.10;;;17.40;;
25049;SDS011;13046;49.814;9.918;2022-11-27T05:48:56;56.65;;;16.88;;
25049;SDS011;13046;49.814;9.918;2022-11-27T05:51:22;51.78;;;19.08;;
25049;SDS011;13046;49.814;9.918;2022-11-27T05:53:49;63.05;;;20.10;;
25049;SDS011;13046;49.814;9.918;2022-11-27T05:56:16;45.92;;;18.67;;
25049;SDS011;13046;49.814;9.918;2022-11-27T05:58:43;40.50;;;17.85;;
25049;SDS011;13046;49.814;9.918;2022-11-27T06:01:11;55.42;;;18.27;;
25049;SDS011;13046;49.814;9.918;2022-11-27T06:03:37;62.90;;;18.60;;
25049;SDS011;13046;49.814;9.918;2022-11-27T06:06:16;111.47;;;20.17;;
25049;SDS011;13046;49.814;9.918;2022-11-27T06:08:44;44.75;;;18.33;;
25049;SDS011;13046;49.814;9.918;2022-11-27T06:11:11;41.63;;;17.23;;
25049;SDS011;13046;49.814;9.918;2022-11-27T06:13:38;56.35;;;18.95;;
25049;SDS011;13046;49.814;9.918;2022-11-27T06:16:09;41.63;;;18.63;;
25049;SDS011;13046;49.814;9.918;2022-11-27T06:18:35;74.53;;;18.27;;
25049;SDS011;13046;49.814;9.918;2022-11-27T06:21:05;43.85;;;20.85;;
25049;SDS011;13046;49.814;9.918;2022-11-27T06:23:31;60.80;;;18.60;;
25049;SDS011;13046;49.814;9.918;2022-11-27T06:25:57;45.72;;;18.73;;
25049;SDS011;13046;49.814;9.918;2022-11-27T06:28:23;39.72;;;18.35;;
25049;SDS011;13046;49.814;9.918;2022-11-27T06:30:49;44.30;;;18.70;;
25049;SDS011;13046;49.814;9.918;2022-11-27T06:33:15;50.75;;;17.95;;
25049;SDS011;13046;49.814;9.918;2022-11-27T06:35:41;69.32;;;18.23;;
25049;SDS011;13046;49.814;9.918;2022-11-27T06:38:07;94.13;;;19.15;;
25049;SDS011;13046;49.814;9.918;2022-11-27T06:40:33;78.55;;;19.35;;
25049;SDS011;13046;49.814;9.918;2022-11-27T06:42:59;51.50;;;17.95;;
25049;SDS011;13046;49.814;9.918;2022-11-27T06:45:25;39.78;;;18.13;;
25049;SDS011;13046;49.814;9.918;2022-11-27T06:47:51;78.93;;;19.98;;
25049;SDS011;13046;49.814;9.918;2022-11-27T06:50:17;51.20;;;19.63;;
25049;SDS011;13046;49.814;9.918;2022-11-27T06:52:43;43.97;;;19.60;;
25049;SDS011;13046;49.814;9.918;2022-11-27T06:55:09;46.67;;;19.40;;
25049;SDS011;13046;49.814;9.918;2022-11-27T06:57:36;42.83;;;20.23;;
25049;SDS011;13046;49.814;9.918;2022-11-27T07:00:02;41.95;;;20.63;;
25049;SDS011;13046;49.814;9.918;2022-11-27T07:02:29;33.60;;;18.42;;
25049;SDS011;13046;49.814;9.918;2022-11-27T07:04:55;37.05;;;20.52;;
25049;SDS011;13046;49.814;9.918;2022-11-27T07:07:21;40.13;;;19.58;;
25049;SDS011;13046;49.814;9.918;2022-11-27T07:09:47;42.70;;;19.25;;
25049;SDS011;13046;49.814;9.918;2022-11-27T07:12:13;40.42;;;20.25;;
25049;SDS011;13046;49.814;9.918;2022-11-27T07:14:39;42.05;;;19.92;;
25049;SDS011;13046;49.814;9.918;2022-11-27T07:17:05;40.58;;;18.63;;
25049;SDS011;13046;49.814;9.918;2022-11-27T07:19:31;46.63;;;19.90;;
25049;SDS011;13046;49.814;9.918;2022-11-27T07:21:57;33.33;;;19.60;;
25049;SDS011;13046;49.814;9.918;2022-11-27T07:24:23;36.58;;;21.85;;
25049;SDS011;13046;49.814;9.918;2022-11-27T07:26:49;33.95;;;19.40;;
25049;SDS011;13046;49.814;9.918;2022-11-27T07:29:15;64.10;;;25.23;;
25049;SDS011;13046;49.814;9.918;2022-11-27T07:31:41;44.80;;;23.20;;
25049;SDS011;13046;49.814;9.918;2022-11-27T07:34:07;36.67;;;21.70;;
25049;SDS011;13046;49.814;9.918;2022-11-27T07:36:33;37.78;;;19.65;;
25049;SDS011;13046;49.814;9.918;2022-11-27T07:38:59;40.67;;;22.30;;
25049;SDS011;13046;49.814;9.918;2022-11-27T07:41:25;33.08;;;19.10;;
25049;SDS011;13046;49.814;9.918;2022-11-27T07:43:51;33.72;;;20.77;;
25049;SDS011;13046;49.814;9.918;2022-11-27T07:46:19;95.13;;;21.65;;
25049;SDS011;13046;49.814;9.918;2022-11-27T07:48:45;47.33;;;20.60;;
25049;SDS011;13046;49.814;9.918;2022-11-27T07:51:12;36.10;;;18.98;;
25049;SDS011;13046;49.814;9.918;2022-11-27T07:53:39;40.90;;;18.63;;
25049;SDS011;13046;49.814;9.918;2022-11-27T07:56:06;41.70;;;18.27;;
25049;SDS011;13046;49.814;9.918;2022-11-27T07:58:32;39.22;;;18.73;;
25049;SDS011;13046;49.814;9.918;2022-11-27T08:00:58;38.33;;;19.90;;
25049;SDS011;13046;49.814;9.918;2022-11-27T08:03:24;36.92;;;20.23;;
25049;SDS011;13046;49.814;9.918;2022-11-27T08:05:50;34.67;;;20.00;;
25049;SDS011;13046;49.814;9.918;2022-11-27T08:08:16;36.90;;;23.98;;
25049;SDS011;13046;49.814;9.918;2022-11-27T08:10:42;37.33;;;19.88;;
25049;SDS011;13046;49.814;9.918;2022-11-27T08:13:09;37.70;;;20.33;;
25049;SDS011;13046;49.814;9.918;2022-11-27T08:15:35;46.05;;;24.70;;
25049;SDS011;13046;49.814;9.918;2022-11-27T08:18:01;42.30;;;21.65;;
25049;SDS011;13046;49.814;9.918;2022-11-27T08:20:27;31.88;;;18.08;;
25049;SDS011;13046;49.814;9.918;2022-11-27T08:22:53;45.53;;;27.45;;
25049;SDS011;13046;49.814;9.918;2022-11-27T08:25:19;40.00;;;29.33;;
25049;SDS011;13046;49.814;9.918;2022-11-27T08:27:45;43.88;;;22.30;;
25049;SDS011;13046;49.814;9.918;2022-11-27T08:30:12;53.33;;;29.45;;
25049;SDS011;13046;49.814;9.918;2022-11-27T08:32:39;64.47;;;45.65;;
25049;SDS011;13046;49.814;9.918;2022-11-27T08:35:06;43.75;;;22.75;;
25049;SDS011;13046;49.814;9.918;2022-11-27T08:37:32;36.25;;;24.17;;
25049;SDS011;13046;49.814;9.918;2022-11-27T08:39:58;40.85;;;21.38;;
25049;SDS011;13046;49.814;9.918;2022-11-27T08:42:24;35.00;;;19.42;;
25049;SDS011;13046;49.814;9.918;2022-11-27T08:44:50;30.33;;;22.20;;
25049;SDS011;13046;49.814;9.918;2022-11-27T08:47:16;29.25;;;19.83;;
25049;SDS011;13046;49.814;9.918;2022-11-27T08:49:42;38.15;;;26.00;;
25049;SDS011;13046;49.814;9.918;2022-11-27T08:52:09;44.38;;;30.73;;
25049;SDS011;13046;49.814;9.918;2022-11-27T08:54:35;40.53;;;24.38;;
25049;SDS011;13046;49.814;9.918;2022-11-27T08:57:01;61.10;;;36.20;;
25049;SDS011;13046;49.814;9.918;2022-11-27T08:59:27;41.97;;;25.88;;
25049;SDS011;13046;49.814;9.918;2022-11-27T09:01:53;48.50;;;28.52;;
25049;SDS011;13046;49.814;9.918;2022-11-27T09:04:19;37.45;;;23.90;;
25049;SDS011;13046;49.814;9.918;2022-11-27T09:06:45;44.13;;;25.85;;
25049;SDS011;13046;49.814;9.918;2022-11-27T09:09:13;176.45;;;106.88;;
25049;SDS011;13046;49.814;9.918;2022-11-27T09:11:39;41.30;;;25.70;;
25049;SDS011;13046;49.814;9.918;2022-11-27T09:14:05;35.72;;;23.88;;
25049;SDS011;13046;49.814;9.918;2022-11-27T09:16:32;41.95;;;31.95;;
25049;SDS011;13046;49.814;9.918;2022-11-27T09:18:59;29.80;;;20.73;;
25049;SDS011;13046;49.814;9.918;2022-11-27T09:21:26;38.33;;;30.58;;
25049;SDS011;13046;49.814;9.918;2022-11-27T09:23:53;28.30;;;23.52;;
25049;SDS011;13046;49.814;9.918;2022-11-27T09:26:19;28.65;;;21.77;;
25049;SDS011;13046;49.814;9.918;2022-11-27T09:28:47;27.67;;;20.55;;
25049;SDS011;13046;49.814;9.918;2022-11-27T09:31:14;27.92;;;18.40;;
25049;SDS011;13046;49.814;9.918;2022-11-27T09:33:41;28.13;;;18.73;;
25049;SDS011;13046;49.814;9.918;2022-11-27T09:36:11;26.88;;;18.80;;
25049;SDS011;13046;49.814;9.918;2022-11-27T09:38:38;28.20;;;18.73;;
25049;SDS011;13046;49.814;9.918;2022-11-27T09:43:53;30.08;;;20.48;;
25049;SDS011;13046;49.814;9.918;2022-11-27T09:46:40;38.08;;;26.48;;
25049;SDS011;13046;49.814;9.918;2022-11-27T09:49:08;37.10;;;22.65;;
25049;SDS011;13046;49.814;9.918;2022-11-27T09:56:59;31.20;;;21.88;;
25049;SDS011;13046;49.814;9.918;2022-11-27T09:59:44;27.05;;;18.95;;
25049;SDS011;13046;49.814;9.918;2022-11-27T10:02:16;34.75;;;23.85;;
25049;SDS011;13046;49.814;9.918;2022-11-27T10:04:43;36.20;;;22.42;;
25049;SDS011;13046;49.814;9.918;2022-11-27T10:10:28;41.05;;;26.77;;
25049;SDS011;13046;49.814;9.918;2022-11-27T10:12:34;37.35;;;25.85;;
25049;SDS011;13046;49.814;9.918;2022-11-27T10:17:49;33.08;;;21.92;;
25049;SDS011;13046;49.814;9.918;2022-11-27T10:20:55;29.65;;;19.13;;
25049;SDS011;13046;49.814;9.918;2022-11-27T10:25:58;29.60;;;19.48;;
25049;SDS011;13046;49.814;9.918;2022-11-27T10:28:38;31.27;;;22.90;;
25049;SDS011;13046;49.814;9.918;2022-11-27T10:31:13;30.88;;;21.70;;
25049;SDS011;13046;49.814;9.918;2022-11-27T10:33:46;33.83;;;23.38;;
25049;SDS011;13046;49.814;9.918;2022-11-27T10:36:15;38.22;;;22.70;;
25049;SDS011;13046;49.814;9.918;2022-11-27T10:38:43;31.10;;;21.70;;
25049;SDS011;13046;49.814;9.918;2022-11-27T10:41:11;51.85;;;36.22;;
25049;SDS011;13046;49.814;9.918;2022-11-27T10:43:39;37.80;;;26.02;;
25049;SDS011;13046;49.814;9.918;2022-11-27T10:46:11;34.70;;;23.88;;
25049;SDS011;13046;49.814;9.918;2022-11-27T10:48:38;31.52;;;20.05;;
25049;SDS011;13046;49.814;9.918;2022-11-27T10:51:10;32.47;;;21.98;;
25049;SDS011;13046;49.814;9.918;2022-11-27T10:53:38;34.05;;;23.27;;
25049;SDS011;13046;49.814;9.918;2022-11-27T11:01:25;35.67;;;23.20;;
25049;SDS011;13046;49.814;9.918;2022-11-27T11:04:04;33.05;;;22.45;;
25049;SDS011;13046;49.814;9.918;2022-11-27T11:06:31;38.95;;;23.58;;
25049;SDS011;13046;49.814;9.918;2022-11-27T11:09:05;33.40;;;23.90;;
25049;SDS011;13046;49.814;9.918;2022-11-27T11:11:31;46.70;;;31.38;;
25049;SDS011;13046;49.814;9.918;2022-11-27T11:13:57;39.13;;;24.48;;
25049;SDS011;13046;49.814;9.918;2022-11-27T11:16:24;40.15;;;27.60;;
25049;SDS011;13046;49.814;9.918;2022-11-27T11:18:54;43.75;;;28.13;;
25049;SDS011;13046;49.814;9.918;2022-11-27T11:23:57;38.17;;;24.58;;
25049;SDS011;13046;49.814;9.918;2022-11-27T11:26:27;61.45;;;48.03;;
25049;SDS011;13046;49.814;9.918;2022-11-27T11:28:58;39.72;;;28.98;;
25049;SDS011;13046;49.814;9.918;2022-11-27T11:31:28;39.72;;;28.25;;
25049;SDS011;13046;49.814;9.918;2022-11-27T11:33:56;32.97;;;23.45;;
25049;SDS011;13046;49.814;9.918;2022-11-27T11:36:23;33.25;;;24.35;;
25049;SDS011;13046;49.814;9.918;2022-11-27T11:38:49;38.45;;;25.63;;
25049;SDS011;13046;49.814;9.918;2022-11-27T11:41:16;33.33;;;23.25;;
25049;SDS011;13046;49.814;9.918;2022-11-27T11:43:58;42.42;;;26.67;;
25049;SDS011;13046;49.814;9.918;2022-11-27T11:46:27;37.55;;;24.60;;
25049;SDS011;13046;49.814;9.918;2022-11-27T11:49:04;33.58;;;24.30;;
25049;SDS011;13046;49.814;9.918;2022-11-27T11:54:17;32.58;;;23.02;;
25049;SDS011;13046;49.814;9.918;2022-11-27T11:56:47;29.52;;;21.77;;
25049;SDS011;13046;49.814;9.918;2022-11-27T12:09:58;30.40;;;22.38;;
25049;SDS011;13046;49.814;9.918;2022-11-27T12:12:44;30.95;;;21.65;;
25049;SDS011;13046;49.814;9.918;2022-11-27T12:28:18;28.73;;;20.25;;
25049;SDS011;13046;49.814;9.918;2022-11-27T12:30:53;28.50;;;21.02;;
25049;SDS011;13046;49.814;9.918;2022-11-27T12:43:49;25.13;;;20.33;;
25049;SDS011;13046;49.814;9.918;2022-11-27T12:46:32;21.80;;;16.13;;
25049;SDS011;13046;49.814;9.918;2022-11-27T12:49:03;18.23;;;16.33;;
25049;SDS011;13046;49.814;9.918;2022-11-27T12:51:31;21.38;;;15.77;;
25049;SDS011;13046;49.814;9.918;2022-11-27T12:56:27;19.58;;;15.52;;
25049;SDS011;13046;49.814;9.918;2022-11-27T13:01:35;18.60;;;15.63;;
25049;SDS011;13046;49.814;9.918;2022-11-27T13:04:23;21.38;;;17.35;;
25049;SDS011;13046;49.814;9.918;2022-11-27T13:06:56;29.52;;;19.40;;
25049;SDS011;13046;49.814;9.918;2022-11-27T13:12:00;20.92;;;15.63;;
25049;SDS011;13046;49.814;9.918;2022-11-27T13:14:27;20.02;;;15.18;;
25049;SDS011;13046;49.814;9.918;2022-11-27T13:16:55;16.27;;;13.82;;
25049;SDS011;13046;49.814;9.918;2022-11-27T13:19:26;18.75;;;14.25;;
25049;SDS011;13046;49.814;9.918;2022-11-27T13:21:53;16.83;;;12.77;;
25049;SDS011;13046;49.814;9.918;2022-11-27T13:24:20;18.23;;;14.07;;
25049;SDS011;13046;49.814;9.918;2022-11-27T13:27:04;17.27;;;14.75;;
25049;SDS011;13046;49.814;9.918;2022-11-27T13:32:00;19.30;;;14.80;;
25049;SDS011;13046;49.814;9.918;2022-11-27T13:34:27;20.50;;;15.98;;
25049;SDS011;13046;49.814;9.918;2022-11-27T13:36:58;20.05;;;14.55;;
25049;SDS011;13046;49.814;9.918;2022-11-27T13:39:29;21.73;;;15.93;;
25049;SDS011;13046;49.814;9.918;2022-11-27T13:42:03;18.25;;;15.90;;
25049;SDS011;13046;49.814;9.918;2022-11-27T13:44:30;18.55;;;14.55;;
25049;SDS011;13046;49.814;9.918;2022-11-27T13:47:03;15.57;;;12.57;;
25049;SDS011;13046;49.814;9.918;2022-11-27T13:49:30;19.88;;;13.88;;
25049;SDS011;13046;49.814;9.918;2022-11-27T13:52:10;21.27;;;15.55;;
25049;SDS011;13046;49.814;9.918;2022-11-27T13:54:37;20.92;;;16.20;;
25049;SDS011;13046;49.814;9.918;2022-11-27T13:57:16;22.48;;;17.83;;
25049;SDS011;13046;49.814;9.918;2022-11-27T14:02:24;25.02;;;15.88;;
25049;SDS011;13046;49.814;9.918;2022-11-27T14:04:51;23.88;;;16.50;;
25049;SDS011;13046;49.814;9.918;2022-11-27T14:07:17;21.98;;;15.73;;
25049;SDS011;13046;49.814;9.918;2022-11-27T14:09:48;26.15;;;16.42;;
25049;SDS011;13046;49.814;9.918;2022-11-27T14:12:23;29.27;;;16.88;;
25049;SDS011;13046;49.814;9.918;2022-11-27T14:15:24;24.27;;;18.10;;
25049;SDS011;13046;49.814;9.918;2022-11-27T14:17:43;20.63;;;15.98;;
25049;SDS011;13046;49.814;9.918;2022-11-27T14:25:15;23.73;;;16.77;;
25049;SDS011;13046;49.814;9.918;2022-11-27T14:27:42;38.50;;;21.80;;
25049;SDS011;13046;49.814;9.918;2022-11-27T14:30:28;24.10;;;16.45;;
25049;SDS011;13046;49.814;9.918;2022-11-27T14:32:55;21.92;;;15.63;;
25049;SDS011;13046;49.814;9.918;2022-11-27T14:35:22;25.92;;;15.90;;
25049;SDS011;13046;49.814;9.918;2022-11-27T14:37:49;23.83;;;16.85;;
25049;SDS011;13046;49.814;9.918;2022-11-27T14:40:20;24.58;;;16.70;;
25049;SDS011;13046;49.814;9.918;2022-11-27T14:42:46;34.30;;;24.23;;
25049;SDS011;13046;49.814;9.918;2022-11-27T14:45:13;25.40;;;17.33;;
25049;SDS011;13046;49.814;9.918;2022-11-27T14:47:41;21.67;;;15.93;;
25049;SDS011;13046;49.814;9.918;2022-11-27T14:50:10;23.27;;;16.33;;
25049;SDS011;13046;49.814;9.918;2022-11-27T14:52:38;60.75;;;33.25;;
25049;SDS011;13046;49.814;9.918;2022-11-27T14:55:04;48.85;;;29.60;;
25049;SDS011;13046;49.814;9.918;2022-11-27T14:57:33;29.23;;;20.20;;
25049;SDS011;13046;49.814;9.918;2022-11-27T15:00:16;57.45;;;36.90;;
25049;SDS011;13046;49.814;9.918;2022-11-27T15:02:44;36.22;;;25.45;;
25049;SDS011;13046;49.814;9.918;2022-11-27T15:05:21;46.65;;;27.85;;
25049;SDS011;13046;49.814;9.918;2022-11-27T15:07:48;43.25;;;25.48;;
25049;SDS011;13046;49.814;9.918;2022-11-27T15:10:30;32.67;;;21.33;;
25049;SDS011;13046;49.814;9.918;2022-11-27T15:12:57;37.40;;;24.77;;
25049;SDS011;13046;49.814;9.918;2022-11-27T15:15:25;41.05;;;26.35;;
25049;SDS011;13046;49.814;9.918;2022-11-27T15:17:55;39.15;;;24.90;;
25049;SDS011;13046;49.814;9.918;2022-11-27T15:22:49;31.67;;;22.17;;
25049;SDS011;13046;49.814;9.918;2022-11-27T15:27:54;32.45;;;20.17;;
25049;SDS011;13046;49.814;9.918;2022-11-27T15:30:20;27.88;;;21.33;;
25049;SDS011;13046;49.814;9.918;2022-11-27T15:32:47;33.38;;;22.33;;
25049;SDS011;13046;49.814;9.918;2022-11-27T15:35:35;26.00;;;19.52;;
25049;SDS011;13046;49.814;9.918;2022-11-27T15:38:07;28.83;;;22.42;;
25049;SDS011;13046;49.814;9.918;2022-11-27T15:40:38;23.53;;;17.27;;
25049;SDS011;13046;49.814;9.918;2022-11-27T15:43:11;26.88;;;19.00;;
25049;SDS011;13046;49.814;9.918;2022-11-27T15:45:38;26.17;;;19.23;;
25049;SDS011;13046;49.814;9.918;2022-11-27T15:48:05;34.22;;;21.42;;
25049;SDS011;13046;49.814;9.918;2022-11-27T15:50:31;25.40;;;17.25;;
25049;SDS011;13046;49.814;9.918;2022-11-27T15:52:57;39.13;;;29.45;;
25049;SDS011;13046;49.814;9.918;2022-11-27T15:55:25;27.45;;;20.13;;
25049;SDS011;13046;49.814;9.918;2022-11-27T15:57:51;33.80;;;22.13;;
25049;SDS011;13046;49.814;9.918;2022-11-27T16:00:17;28.00;;;21.33;;
25049;SDS011;13046;49.814;9.918;2022-11-27T16:02:43;27.42;;;20.25;;
25049;SDS011;13046;49.814;9.918;2022-11-27T16:05:09;71.72;;;44.78;;
25049;SDS011;13046;49.814;9.918;2022-11-27T16:07:35;31.20;;;21.33;;
25049;SDS011;13046;49.814;9.918;2022-11-27T16:10:01;58.42;;;34.50;;
25049;SDS011;13046;49.814;9.918;2022-11-27T16:12:28;31.55;;;23.75;;
25049;SDS011;13046;49.814;9.918;2022-11-27T16:14:54;33.88;;;23.95;;
25049;SDS011;13046;49.814;9.918;2022-11-27T16:17:20;33.20;;;22.95;;